Terminal Aerodrome Forecast
Issued by NWS

Home | Current Version | Previous Version | Graphics & Text | Print | Product List | Glossary On
Versions: 1 2 3 4 5 6 7 8 9 10 11 12 13 14 15 16 17 18
000
FTUS43 KGRB 060500
TAFAUW
TAF
KAUW 060520Z 0606/0706 11005KT P6SM -SHRA OVC035
     FM060800 12007KT P6SM OVC008
     FM061700 13009KT P6SM BKN015
     FM062100 13008KT P6SM SCT025
     FM070000 13007KT P6SM SCT070 BKN120=

USA.gov is the U.S. government's official web portal to all federal, state and local government web resources and services.